Astor — C6JR3 — position and weather

sailwx.info

Track history (hours):
 
Tides and Currents Weather Stations Pressure Air Temp Water Temp Dewpoint Dewpoint Depression Visibility Wind Speed Wind Dir Waves Ship Positions

Astor

Operator: Passat Ship Management Ltd

Last reported at 2019-Sep-20 03:45 UTC. Time now 2019-Sep-21 11:19 UTC.
Position N 30°10' W 013°36'.

Length 176 m.

MMSI: 308214000.

Date/timePositionNaut miles runAvg speedWind from/ knotsBaromVisibWave heightAir tempDewpointWater temp
2019-Sep-20 03:45N 30°10' W 013°36'715.0
2019-Sep-20 03:19N 30°06' W 013°42'515.0
2019-Sep-20 02:59N 30°03' W 013°47'815.1
2019-Sep-20 02:27N 29°58' W 013°54'715.0
2019-Sep-20 01:59N 29°54' W 014°00'914.9
2019-Sep-20 01:23N 29°48' W 014°08'715.1
2019-Sep-20 00:56N 29°45' W 014°15'715.1
2019-Sep-20 00:30N 29°41' W 014°21'1115.1
2019-Sep-19 23:44N 29°34' W 014°32'415.1
2019-Sep-19 23:30N 29°32' W 014°35'815.2
2019-Sep-19 22:59N 29°27' W 014°42'715.3
2019-Sep-19 22:30N 29°23' W 014°49'1615.4
2019-Sep-19 21:27N 29°13' W 015°03'715.5
2019-Sep-19 21:00N 29°09' W 015°10'815.7
2019-Sep-19 20:30N 29°04' W 015°17'815.5
2019-Sep-19 20:00N 28°60' W 015°24'815.3
2019-Sep-19 19:30N 28°55' W 015°31'815.2
2019-Sep-19 19:00N 28°50' W 015°38'815.1
2019-Sep-19 18:30N 28°46' W 015°45'714.9
2019-Sep-19 18:00N 28°41' W 015°51'815.3
2019-Sep-19 17:30N 28°36' W 015°58'714.9
2019-Sep-19 17:00N 28°32' W 016°05'612.6
2019-Sep-19 16:30N 28°29' W 016°12'3 5.4
2019-Sep-19 16:00N 28°28' W 016°15'0 0.0
2019-Sep-19 15:30N 28°28' W 016°15'0 0.0
2019-Sep-19 15:00N 28°28' W 016°15'0 0.0
2019-Sep-19 14:30N 28°28' W 016°15'0 0.0
2019-Sep-19 14:00N 28°28' W 016°15'0 0.0
2019-Sep-19 13:30N 28°28' W 016°15'0 0.0
2019-Sep-19 13:00N 28°28' W 016°15'0 0.0
2019-Sep-19 12:30N 28°28' W 016°15'0 0.0
2019-Sep-19 12:00N 28°28' W 016°15'0 0.0
2019-Sep-19 11:30N 28°28' W 016°15'0 0.0
2019-Sep-19 11:00N 28°28' W 016°15'0 0.0
2019-Sep-19 10:31N 28°28' W 016°15'0 0.0
2019-Sep-19 09:57N 28°28' W 016°15'0 0.0
2019-Sep-19 09:30N 28°28' W 016°15'0 0.0
2019-Sep-19 09:00N 28°28' W 016°15'0 0.0
2019-Sep-19 08:30N 28°28' W 016°15'0 0.0
2019-Sep-19 08:00N 28°28' W 016°15'0 0.0
2019-Sep-19 07:29N 28°28' W 016°15'0 0.0
2019-Sep-19 06:59N 28°28' W 016°15'0 0.0
2019-Sep-19 06:29N 28°28' W 016°15'0 0.0
2019-Sep-19 05:59N 28°28' W 016°15'0 0.4
2019-Sep-19 05:31N 28°28' W 016°14'2 4.4
2019-Sep-19 05:01N 28°28' W 016°12'3 6.9
2019-Sep-19 04:31N 28°27' W 016°08'510.1
2019-Sep-19 04:01N 28°25' W 016°03'5 9.0
2019-Sep-19 03:31N 28°22' W 015°59'4 8.0
2019-Sep-19 03:00N 28°19' W 015°57'4 9.0
2019-Sep-19 02:30N 28°15' W 016°00'10 8.8
2019-Sep-19 01:25N 28°08' W 016°07'5 8.6
2019-Sep-19 00:48N 28°04' W 016°11'  
2019-Sep-16 19:03N 32°39' W 016°55'1 0.1
2019-Sep-16 11:11N 32°39' W 016°54'1 2.4
2019-Sep-16 10:56N 32°38' W 016°54'5814.2
2019-Sep-16 06:49N 33°16' W 016°01'1115.8
2019-Sep-16 06:08N 33°25' W 015°53'2916.1
2019-Sep-16 04:20N 33°48' W 015°32'1116.1
2019-Sep-16 03:41N 33°56' W 015°25'316.1
2019-Sep-16 03:30N 33°59' W 015°23'816.1
2019-Sep-16 02:59N 34°05' W 015°17'815.9
2019-Sep-16 02:28N 34°12' W 015°11'20015.9
2019-Sep-15 13:54N 36°53' W 012°46'2416.2
2019-Sep-15 12:24N 37°13' W 012°28'1016.7
2019-Sep-15 11:48N 37°21' W 012°20'1116.3
2019-Sep-15 11:09N 37°29' W 012°13'315.6
2019-Sep-15 10:58N 37°31' W 012°10'3515.9
2019-Sep-15 08:48N 37°59' W 011°44'516.1
2019-Sep-15 08:28N 38°04' W 011°40'716.2
2019-Sep-15 08:00N 38°10' W 011°35'815.9
2019-Sep-15 07:30N 38°16' W 011°29'815.8
2019-Sep-15 07:00N 38°22' W 011°23'816.1
2019-Sep-15 06:30N 38°29' W 011°17'816.0
2019-Sep-15 06:00N 38°35' W 011°11'816.1
2019-Sep-15 05:30N 38°42' W 011°05'816.0
2019-Sep-15 05:00N 38°48' W 010°58'816.4
2019-Sep-15 04:30N 38°55' W 010°52'816.1
2019-Sep-15 04:00N 39°01' W 010°46'816.2
2019-Sep-15 03:30N 39°08' W 010°40'1016.2
2019-Sep-15 02:55N 39°16' W 010°33'716.3
2019-Sep-15 02:30N 39°21' W 010°28'816.3
2019-Sep-15 02:00N 39°28' W 010°22'1116.2
2019-Sep-15 01:21N 39°36' W 010°13'11316.0
2019-Sep-14 18:19N 41°07' W 008°46'412.2
2019-Sep-14 18:01N 41°10' W 008°43'2 3.6
2019-Sep-14 17:30N 41°11' W 008°42'0 0.0
2019-Sep-14 17:00N 41°11' W 008°42'0 0.0
2019-Sep-14 16:30N 41°11' W 008°42'0 0.0
2019-Sep-14 16:00N 41°11' W 008°42'0 0.0
2019-Sep-14 15:29N 41°11' W 008°42'0 0.0
2019-Sep-14 14:59N 41°11' W 008°42'0 0.0
2019-Sep-14 14:29N 41°11' W 008°42'0 0.1
2019-Sep-14 14:00N 41°11' W 008°42'2 4.0
2019-Sep-14 13:30N 41°11' W 008°44'32612.5
2019-Sep-13 11:28N 45°54' W 005°00'715.9
2019-Sep-13 11:00N 45°58' W 004°51'916.0
2019-Sep-13 10:28N 46°03' W 004°41'816.2
2019-Sep-13 09:57N 46°07' W 004°32'716.5
2019-Sep-13 09:30N 46°12' W 004°23'816.2
2019-Sep-13 09:00N 46°16' W 004°13'816.2
2019-Sep-13 08:29N 46°21' W 004°03'816.7
2019-Sep-13 08:00N 46°26' W 003°54'816.5
2019-Sep-13 07:31N 46°30' W 003°44'1016.4
2019-Sep-13 06:56N 46°36' W 003°32'716.7
2019-Sep-13 06:30N 46°39' W 003°24'815.8
2019-Sep-13 06:00N 46°44' W 003°14'816.0
2019-Sep-13 05:30N 46°48' W 003°04'816.0
2019-Sep-13 05:00N 46°52' W 002°55'815.9
2019-Sep-13 04:30N 46°57' W 002°45'815.5
2019-Sep-13 04:00N 47°01' W 002°35'714.5
2019-Sep-13 03:30N 47°05' W 002°26'611.8
2019-Sep-13 03:00N 47°09' W 002°20'712.8
2019-Sep-13 02:29N 47°14' W 002°14'2 2.4
2019-Sep-13 01:29N 47°16' W 002°12'0 0.3
2019-Sep-13 01:00N 47°16' W 002°12'0 0.9
2019-Sep-13 00:30N 47°17' W 002°12'0 0.4
2019-Sep-13 00:00N 47°17' W 002°12'0 0.1
2019-Sep-12 23:29N 47°17' W 002°12'0 0.0
2019-Sep-12 22:59N 47°17' W 002°12'0 0.0
2019-Sep-12 22:04N 47°17' W 002°12'0 0.0
2019-Sep-12 21:58N 47°17' W 002°12'0 0.0
2019-Sep-12 21:28N 47°17' W 002°12'0 0.0
2019-Sep-12 20:58N 47°17' W 002°12'0 0.0
2019-Sep-12 20:31N 47°17' W 002°12'0 0.0
2019-Sep-12 19:54N 47°17' W 002°12'0 0.0
2019-Sep-12 19:27N 47°17' W 002°12'0 0.0
2019-Sep-12 19:00N 47°17' W 002°12'0 0.0
2019-Sep-12 18:30N 47°17' W 002°12'0 0.0
2019-Sep-12 17:59N 47°17' W 002°12'0 0.0
2019-Sep-12 17:26N 47°17' W 002°12'0 0.0
2019-Sep-12 16:59N 47°17' W 002°12'0 0.0
2019-Sep-12 16:29N 47°17' W 002°12'0 0.0
2019-Sep-12 15:59N 47°17' W 002°12'0 0.0
2019-Sep-12 15:28N 47°17' W 002°12'0 0.0
2019-Sep-12 14:55N 47°17' W 002°12'0 0.0
2019-Sep-12 14:28N 47°17' W 002°12'0 0.0
2019-Sep-12 13:40N 47°17' W 002°12'0 0.0
2019-Sep-12 13:24N 47°17' W 002°12'0 0.0
2019-Sep-12 12:45N 47°17' W 002°12'0 0.0
2019-Sep-12 12:12N 47°17' W 002°12'0 0.0
2019-Sep-12 08:55N 47°17' W 002°12'0 0.0
2019-Sep-12 08:25N 47°17' W 002°12'0 0.0
2019-Sep-12 07:37N 47°17' W 002°12'0 0.0
2019-Sep-12 07:16N 47°17' W 002°12'0 0.0
2019-Sep-12 06:58N 47°17' W 002°12'0 0.0
2019-Sep-12 06:30N 47°17' W 002°12'0 0.0
2019-Sep-12 05:54N 47°17' W 002°12'0 0.0
2019-Sep-12 05:30N 47°17' W 002°12'0 0.0
2019-Sep-12 04:48N 47°17' W 002°12'0 0.0
2019-Sep-12 04:30N 47°17' W 002°12'0 0.0
2019-Sep-12 03:59N 47°17' W 002°12'0 0.0
2019-Sep-12 03:26N 47°17' W 002°12'0 0.0
2019-Sep-12 02:59N 47°17' W 002°12'0 0.0
2019-Sep-12 02:26N 47°17' W 002°12'0 0.0
2019-Sep-12 01:58N 47°17' W 002°12'0 0.0
2019-Sep-12 00:55N 47°17' W 002°12'0 0.0
2019-Sep-12 00:25N 47°17' W 002°12'0 0.0
2019-Sep-11 23:12N 47°17' W 002°12'0 0.0
2019-Sep-11 22:48N 47°17' W 002°12'0 0.0
2019-Sep-11 21:51N 47°17' W 002°12'0 0.0
2019-Sep-11 21:20N 47°17' W 002°12'0 0.0
2019-Sep-11 19:35N 47°17' W 002°12'0 0.0
2019-Sep-11 18:25N 47°17' W 002°12'0 0.0
2019-Sep-11 17:58N 47°17' W 002°12'0 0.0
2019-Sep-11 16:11N 47°17' W 002°12'0 0.0
2019-Sep-11 10:55N 47°17' W 002°12'0 0.0
2019-Sep-11 10:25N 47°17' W 002°12'0 0.0
2019-Sep-11 09:55N 47°17' W 002°12'0 0.0
2019-Sep-11 09:18N 47°17' W 002°12'0 0.0
2019-Sep-11 08:57N 47°17' W 002°12'0 0.0
2019-Sep-11 08:15N 47°17' W 002°12'0 0.0
2019-Sep-11 07:36N 47°17' W 002°12'0 0.1
2019-Sep-11 07:30N 47°17' W 002°12'0 0.0
2019-Sep-11 06:50N 47°17' W 002°12'0 0.0
2019-Sep-11 06:20N 47°17' W 002°12'0 0.0
2019-Sep-11 05:59N 47°17' W 002°12'0 0.0
2019-Sep-11 05:23N 47°17' W 002°12'0 0.0
2019-Sep-11 04:25N 47°17' W 002°12'0 0.0
2019-Sep-11 03:55N 47°17' W 002°12'0 0.0
2019-Sep-11 01:12N 47°17' W 002°12'0 0.0
2019-Sep-11 01:00N 47°17' W 002°12'0 0.0
2019-Sep-11 00:29N 47°17' W 002°12'0 0.0
2019-Sep-10 23:53N 47°17' W 002°12'0 0.0
2019-Sep-10 23:20N 47°17' W 002°12'0 0.0
2019-Sep-10 22:35N 47°17' W 002°12'0 0.0
2019-Sep-10 21:34N 47°17' W 002°12'0 0.0
2019-Sep-10 21:28N 47°17' W 002°12'0 0.0
2019-Sep-10 20:49N 47°17' W 002°12'0 0.0
2019-Sep-10 20:16N 47°17' W 002°12'0 0.0
2019-Sep-10 19:45N 47°17' W 002°12'0 0.0
2019-Sep-10 19:24N 47°17' W 002°12'0 0.0
2019-Sep-10 18:57N 47°17' W 002°12'0 0.0
2019-Sep-10 18:12N 47°17' W 002°12'0 0.0
2019-Sep-10 17:45N 47°17' W 002°12'0 0.0
2019-Sep-10 17:14N 47°17' W 002°12'0 0.0
2019-Sep-10 16:38N 47°17' W 002°12'0 0.0
2019-Sep-10 16:29N 47°17' W 002°12'0 0.0
2019-Sep-10 15:50N 47°17' W 002°12'0 0.0
2019-Sep-10 15:29N 47°17' W 002°12'0 0.0
2019-Sep-10 14:58N 47°17' W 002°12'0 0.0
2019-Sep-10 14:28N 47°17' W 002°12'0 0.0
2019-Sep-10 13:58N 47°17' W 002°12'0 0.0
2019-Sep-10 13:16N 47°17' W 002°12'0 0.0
2019-Sep-10 12:51N 47°17' W 002°12'0 0.0
2019-Sep-10 12:24N 47°17' W 002°12'0 0.0
2019-Sep-10 11:57N 47°17' W 002°12'0 0.0
2019-Sep-10 11:21N 47°17' W 002°12'0 0.0
2019-Sep-10 10:51N 47°17' W 002°12'0 0.0
2019-Sep-10 09:32N 47°17' W 002°12'0 0.0
2019-Sep-10 09:29N 47°17' W 002°12'0 0.0
2019-Sep-10 08:38N 47°17' W 002°12'0 0.0
2019-Sep-10 08:01N 47°17' W 002°12'0 0.0
2019-Sep-10 05:54N 47°17' W 002°12'0 0.0
2019-Sep-10 05:18N 47°17' W 002°12'0 0.0
2019-Sep-10 04:57N 47°17' W 002°12'0 0.0
2019-Sep-10 04:30N 47°17' W 002°12'0 0.0
2019-Sep-10 04:00N 47°17' W 002°12'  
Track history (hours):
 
Tides and Currents Weather Stations Pressure Air Temp Water Temp Dewpoint Dewpoint Depression Visibility Wind Speed Wind Dir Waves Ship Positions

Astor

Operator: Passat Ship Management Ltd

Last reported at 2019-Sep-20 03:45 UTC. Time now 2019-Sep-21 11:19 UTC.
Position N 30°10' W 013°36'.

Length 176 m.

MMSI: 308214000.

Date/timePositionNaut miles runAvg speedWind from/ knotsBaromVisibWave heightAir tempDewpointWater temp
2019-Sep-20 03:45N 30°10' W 013°36'715.0
2019-Sep-20 03:19N 30°06' W 013°42'515.0
2019-Sep-20 02:59N 30°03' W 013°47'815.1
2019-Sep-20 02:27N 29°58' W 013°54'715.0
2019-Sep-20 01:59N 29°54' W 014°00'914.9
2019-Sep-20 01:23N 29°48' W 014°08'715.1
2019-Sep-20 00:56N 29°45' W 014°15'715.1
2019-Sep-20 00:30N 29°41' W 014°21'1115.1
2019-Sep-19 23:44N 29°34' W 014°32'415.1
2019-Sep-19 23:30N 29°32' W 014°35'815.2
2019-Sep-19 22:59N 29°27' W 014°42'715.3
2019-Sep-19 22:30N 29°23' W 014°49'1615.4
2019-Sep-19 21:27N 29°13' W 015°03'715.5
2019-Sep-19 21:00N 29°09' W 015°10'815.7
2019-Sep-19 20:30N 29°04' W 015°17'815.5
2019-Sep-19 20:00N 28°60' W 015°24'815.3
2019-Sep-19 19:30N 28°55' W 015°31'815.2
2019-Sep-19 19:00N 28°50' W 015°38'815.1
2019-Sep-19 18:30N 28°46' W 015°45'714.9
2019-Sep-19 18:00N 28°41' W 015°51'815.3
2019-Sep-19 17:30N 28°36' W 015°58'714.9
2019-Sep-19 17:00N 28°32' W 016°05'612.6
2019-Sep-19 16:30N 28°29' W 016°12'3 5.4
2019-Sep-19 16:00N 28°28' W 016°15'0 0.0
2019-Sep-19 15:30N 28°28' W 016°15'0 0.0
2019-Sep-19 15:00N 28°28' W 016°15'0 0.0
2019-Sep-19 14:30N 28°28' W 016°15'0 0.0
2019-Sep-19 14:00N 28°28' W 016°15'0 0.0
2019-Sep-19 13:30N 28°28' W 016°15'0 0.0
2019-Sep-19 13:00N 28°28' W 016°15'0 0.0
2019-Sep-19 12:30N 28°28' W 016°15'0 0.0
2019-Sep-19 12:00N 28°28' W 016°15'0 0.0
2019-Sep-19 11:30N 28°28' W 016°15'0 0.0
2019-Sep-19 11:00N 28°28' W 016°15'0 0.0
2019-Sep-19 10:31N 28°28' W 016°15'0 0.0
2019-Sep-19 09:57N 28°28' W 016°15'0 0.0
2019-Sep-19 09:30N 28°28' W 016°15'0 0.0
2019-Sep-19 09:00N 28°28' W 016°15'0 0.0
2019-Sep-19 08:30N 28°28' W 016°15'0 0.0
2019-Sep-19 08:00N 28°28' W 016°15'0 0.0
2019-Sep-19 07:29N 28°28' W 016°15'0 0.0
2019-Sep-19 06:59N 28°28' W 016°15'0 0.0
2019-Sep-19 06:29N 28°28' W 016°15'0 0.0
2019-Sep-19 05:59N 28°28' W 016°15'0 0.4
2019-Sep-19 05:31N 28°28' W 016°14'2 4.4
2019-Sep-19 05:01N 28°28' W 016°12'3 6.9
2019-Sep-19 04:31N 28°27' W 016°08'510.1
2019-Sep-19 04:01N 28°25' W 016°03'5 9.0
2019-Sep-19 03:31N 28°22' W 015°59'4 8.0
2019-Sep-19 03:00N 28°19' W 015°57'4 9.0
2019-Sep-19 02:30N 28°15' W 016°00'10 8.8
2019-Sep-19 01:25N 28°08' W 016°07'5 8.6
2019-Sep-19 00:48N 28°04' W 016°11'  
2019-Sep-16 19:03N 32°39' W 016°55'1 0.1
2019-Sep-16 11:11N 32°39' W 016°54'1 2.4
2019-Sep-16 10:56N 32°38' W 016°54'5814.2
2019-Sep-16 06:49N 33°16' W 016°01'1115.8
2019-Sep-16 06:08N 33°25' W 015°53'2916.1
2019-Sep-16 04:20N 33°48' W 015°32'1116.1
2019-Sep-16 03:41N 33°56' W 015°25'316.1
2019-Sep-16 03:30N 33°59' W 015°23'816.1
2019-Sep-16 02:59N 34°05' W 015°17'815.9
2019-Sep-16 02:28N 34°12' W 015°11'20015.9
2019-Sep-15 13:54N 36°53' W 012°46'2416.2
2019-Sep-15 12:24N 37°13' W 012°28'1016.7
2019-Sep-15 11:48N 37°21' W 012°20'1116.3
2019-Sep-15 11:09N 37°29' W 012°13'315.6
2019-Sep-15 10:58N 37°31' W 012°10'3515.9
2019-Sep-15 08:48N 37°59' W 011°44'516.1
2019-Sep-15 08:28N 38°04' W 011°40'716.2
2019-Sep-15 08:00N 38°10' W 011°35'815.9
2019-Sep-15 07:30N 38°16' W 011°29'815.8
2019-Sep-15 07:00N 38°22' W 011°23'816.1
2019-Sep-15 06:30N 38°29' W 011°17'816.0
2019-Sep-15 06:00N 38°35' W 011°11'816.1
2019-Sep-15 05:30N 38°42' W 011°05'816.0
2019-Sep-15 05:00N 38°48' W 010°58'816.4
2019-Sep-15 04:30N 38°55' W 010°52'816.1
2019-Sep-15 04:00N 39°01' W 010°46'816.2
2019-Sep-15 03:30N 39°08' W 010°40'1016.2
2019-Sep-15 02:55N 39°16' W 010°33'716.3
2019-Sep-15 02:30N 39°21' W 010°28'816.3
2019-Sep-15 02:00N 39°28' W 010°22'1116.2
2019-Sep-15 01:21N 39°36' W 010°13'11316.0
2019-Sep-14 18:19N 41°07' W 008°46'412.2
2019-Sep-14 18:01N 41°10' W 008°43'2 3.6
2019-Sep-14 17:30N 41°11' W 008°42'0 0.0
2019-Sep-14 17:00N 41°11' W 008°42'0 0.0
2019-Sep-14 16:30N 41°11' W 008°42'0 0.0
2019-Sep-14 16:00N 41°11' W 008°42'0 0.0
2019-Sep-14 15:29N 41°11' W 008°42'0 0.0
2019-Sep-14 14:59N 41°11' W 008°42'0 0.0
2019-Sep-14 14:29N 41°11' W 008°42'0 0.1
2019-Sep-14 14:00N 41°11' W 008°42'2 4.0
2019-Sep-14 13:30N 41°11' W 008°44'32612.5
2019-Sep-13 11:28N 45°54' W 005°00'715.9
2019-Sep-13 11:00N 45°58' W 004°51'916.0
2019-Sep-13 10:28N 46°03' W 004°41'816.2
2019-Sep-13 09:57N 46°07' W 004°32'716.5
2019-Sep-13 09:30N 46°12' W 004°23'816.2
2019-Sep-13 09:00N 46°16' W 004°13'816.2
2019-Sep-13 08:29N 46°21' W 004°03'816.7
2019-Sep-13 08:00N 46°26' W 003°54'816.5
2019-Sep-13 07:31N 46°30' W 003°44'1016.4
2019-Sep-13 06:56N 46°36' W 003°32'716.7
2019-Sep-13 06:30N 46°39' W 003°24'815.8
2019-Sep-13 06:00N 46°44' W 003°14'816.0
2019-Sep-13 05:30N 46°48' W 003°04'816.0
2019-Sep-13 05:00N 46°52' W 002°55'815.9
2019-Sep-13 04:30N 46°57' W 002°45'815.5
2019-Sep-13 04:00N 47°01' W 002°35'714.5
2019-Sep-13 03:30N 47°05' W 002°26'611.8
2019-Sep-13 03:00N 47°09' W 002°20'712.8
2019-Sep-13 02:29N 47°14' W 002°14'2 2.4
2019-Sep-13 01:29N 47°16' W 002°12'0 0.3
2019-Sep-13 01:00N 47°16' W 002°12'0 0.9
2019-Sep-13 00:30N 47°17' W 002°12'0 0.4
2019-Sep-13 00:00N 47°17' W 002°12'0 0.1
2019-Sep-12 23:29N 47°17' W 002°12'0 0.0
2019-Sep-12 22:59N 47°17' W 002°12'0 0.0
2019-Sep-12 22:04N 47°17' W 002°12'0 0.0
2019-Sep-12 21:58N 47°17' W 002°12'0 0.0
2019-Sep-12 21:28N 47°17' W 002°12'0 0.0
2019-Sep-12 20:58N 47°17' W 002°12'0 0.0
2019-Sep-12 20:31N 47°17' W 002°12'0 0.0
2019-Sep-12 19:54N 47°17' W 002°12'0 0.0
2019-Sep-12 19:27N 47°17' W 002°12'0 0.0
2019-Sep-12 19:00N 47°17' W 002°12'0 0.0
2019-Sep-12 18:30N 47°17' W 002°12'0 0.0
2019-Sep-12 17:59N 47°17' W 002°12'0 0.0
2019-Sep-12 17:26N 47°17' W 002°12'0 0.0
2019-Sep-12 16:59N 47°17' W 002°12'0 0.0
2019-Sep-12 16:29N 47°17' W 002°12'0 0.0
2019-Sep-12 15:59N 47°17' W 002°12'0 0.0
2019-Sep-12 15:28N 47°17' W 002°12'0 0.0
2019-Sep-12 14:55N 47°17' W 002°12'0 0.0
2019-Sep-12 14:28N 47°17' W 002°12'0 0.0
2019-Sep-12 13:40N 47°17' W 002°12'0 0.0
2019-Sep-12 13:24N 47°17' W 002°12'0 0.0
2019-Sep-12 12:45N 47°17' W 002°12'0 0.0
2019-Sep-12 12:12N 47°17' W 002°12'0 0.0
2019-Sep-12 08:55N 47°17' W 002°12'0 0.0
2019-Sep-12 08:25N 47°17' W 002°12'0 0.0
2019-Sep-12 07:37N 47°17' W 002°12'0 0.0
2019-Sep-12 07:16N 47°17' W 002°12'0 0.0
2019-Sep-12 06:58N 47°17' W 002°12'0 0.0
2019-Sep-12 06:30N 47°17' W 002°12'0 0.0
2019-Sep-12 05:54N 47°17' W 002°12'0 0.0
2019-Sep-12 05:30N 47°17' W 002°12'0 0.0
2019-Sep-12 04:48N 47°17' W 002°12'0 0.0
2019-Sep-12 04:30N 47°17' W 002°12'0 0.0
2019-Sep-12 03:59N 47°17' W 002°12'0 0.0
2019-Sep-12 03:26N 47°17' W 002°12'0 0.0
2019-Sep-12 02:59N 47°17' W 002°12'0 0.0
2019-Sep-12 02:26N 47°17' W 002°12'0 0.0
2019-Sep-12 01:58N 47°17' W 002°12'0 0.0
2019-Sep-12 00:55N 47°17' W 002°12'0 0.0
2019-Sep-12 00:25N 47°17' W 002°12'0 0.0
2019-Sep-11 23:12N 47°17' W 002°12'0 0.0
2019-Sep-11 22:48N 47°17' W 002°12'0 0.0
2019-Sep-11 21:51N 47°17' W 002°12'0 0.0
2019-Sep-11 21:20N 47°17' W 002°12'0 0.0
2019-Sep-11 19:35N 47°17' W 002°12'0 0.0
2019-Sep-11 18:25N 47°17' W 002°12'0 0.0
2019-Sep-11 17:58N 47°17' W 002°12'0 0.0
2019-Sep-11 16:11N 47°17' W 002°12'0 0.0
2019-Sep-11 10:55N 47°17' W 002°12'0 0.0
2019-Sep-11 10:25N 47°17' W 002°12'0 0.0
2019-Sep-11 09:55N 47°17' W 002°12'0 0.0
2019-Sep-11 09:18N 47°17' W 002°12'0 0.0
2019-Sep-11 08:57N 47°17' W 002°12'0 0.0
2019-Sep-11 08:15N 47°17' W 002°12'0 0.0
2019-Sep-11 07:36N 47°17' W 002°12'0 0.1
2019-Sep-11 07:30N 47°17' W 002°12'0 0.0
2019-Sep-11 06:50N 47°17' W 002°12'0 0.0
2019-Sep-11 06:20N 47°17' W 002°12'0 0.0
2019-Sep-11 05:59N 47°17' W 002°12'0 0.0
2019-Sep-11 05:23N 47°17' W 002°12'0 0.0
2019-Sep-11 04:25N 47°17' W 002°12'0 0.0
2019-Sep-11 03:55N 47°17' W 002°12'0 0.0
2019-Sep-11 01:12N 47°17' W 002°12'0 0.0
2019-Sep-11 01:00N 47°17' W 002°12'0 0.0
2019-Sep-11 00:29N 47°17' W 002°12'0 0.0
2019-Sep-10 23:53N 47°17' W 002°12'0 0.0
2019-Sep-10 23:20N 47°17' W 002°12'0 0.0
2019-Sep-10 22:35N 47°17' W 002°12'0 0.0
2019-Sep-10 21:34N 47°17' W 002°12'0 0.0
2019-Sep-10 21:28N 47°17' W 002°12'0 0.0
2019-Sep-10 20:49N 47°17' W 002°12'0 0.0
2019-Sep-10 20:16N 47°17' W 002°12'0 0.0
2019-Sep-10 19:45N 47°17' W 002°12'0 0.0
2019-Sep-10 19:24N 47°17' W 002°12'0 0.0
2019-Sep-10 18:57N 47°17' W 002°12'0 0.0
2019-Sep-10 18:12N 47°17' W 002°12'0 0.0
2019-Sep-10 17:45N 47°17' W 002°12'0 0.0
2019-Sep-10 17:14N 47°17' W 002°12'0 0.0
2019-Sep-10 16:38N 47°17' W 002°12'0 0.0
2019-Sep-10 16:29N 47°17' W 002°12'0 0.0
2019-Sep-10 15:50N 47°17' W 002°12'0 0.0
2019-Sep-10 15:29N 47°17' W 002°12'0 0.0
2019-Sep-10 14:58N 47°17' W 002°12'0 0.0
2019-Sep-10 14:28N 47°17' W 002°12'0 0.0
2019-Sep-10 13:58N 47°17' W 002°12'0 0.0
2019-Sep-10 13:16N 47°17' W 002°12'0 0.0
2019-Sep-10 12:51N 47°17' W 002°12'0 0.0
2019-Sep-10 12:24N 47°17' W 002°12'0 0.0
2019-Sep-10 11:57N 47°17' W 002°12'0 0.0
2019-Sep-10 11:21N 47°17' W 002°12'0 0.0
2019-Sep-10 10:51N 47°17' W 002°12'0 0.0
2019-Sep-10 09:32N 47°17' W 002°12'0 0.0
2019-Sep-10 09:29N 47°17' W 002°12'0 0.0
2019-Sep-10 08:38N 47°17' W 002°12'0 0.0
2019-Sep-10 08:01N 47°17' W 002°12'0 0.0
2019-Sep-10 05:54N 47°17' W 002°12'0 0.0
2019-Sep-10 05:18N 47°17' W 002°12'0 0.0
2019-Sep-10 04:57N 47°17' W 002°12'0 0.0
2019-Sep-10 04:30N 47°17' W 002°12'0 0.0
2019-Sep-10 04:00N 47°17' W 002°12'  

Dump ship's entire track history